Nassauborg — PHDU — position and weather

sailwx.info

Track history (hours):
 
Tides and Currents Weather Stations Pressure Air Temp Water Temp Dewpoint Dewpoint Depression Visibility Wind Speed Wind Dir Waves Ship Positions

Nassauborg

Ship's website: http://www.wagenborg.com/index.cfm?pid=37&itemid=158&contentitemid=236

Last reported at 2017-Mar-21 19:33 UTC. Time now 2017-Mar-24 04:24 UTC.
Position N 56°01' W 003°20'.

Length 143 m; beam 22 m.

Type: Ship. MMSI: 246430000.

Date/timePositionNaut miles runAvg speedWind from/ knotsBaromVisibWave heightAir tempDewpointWater temp
2017-Mar-21 19:33N 56°01' W 003°20'9 9.5
2017-Mar-21 18:34N 56°06' W 003°05'1 1.0
2017-Mar-21 17:33N 56°07' W 003°05'0 0.2
2017-Mar-21 16:34N 56°07' W 003°05'0 0.1
2017-Mar-21 15:34N 56°07' W 003°04'0 0.0
2017-Mar-21 14:33N 56°07' W 003°05'0 0.1
2017-Mar-21 13:33N 56°07' W 003°05'0 0.0
2017-Mar-21 12:33N 56°07' W 003°05'0 0.0
2017-Mar-21 11:33N 56°07' W 003°05'0 0.0
2017-Mar-21 10:33N 56°07' W 003°05'0 0.0
2017-Mar-21 09:33N 56°07' W 003°05'0 0.0
2017-Mar-21 08:33N 56°07' W 003°05'0 0.0
2017-Mar-21 07:34N 56°07' W 003°05'0 0.0
2017-Mar-21 06:33N 56°07' W 003°05'0 0.0
2017-Mar-21 05:34N 56°07' W 003°05'0 0.0
2017-Mar-21 04:34N 56°07' W 003°05'0 0.0
2017-Mar-21 03:33N 56°07' W 003°05'0 0.0
2017-Mar-21 02:33N 56°07' W 003°05'0 0.0
2017-Mar-21 01:33N 56°07' W 003°05'0 0.0
2017-Mar-21 00:33N 56°07' W 003°05'0 0.0
2017-Mar-20 23:34N 56°07' W 003°05'0 0.0
2017-Mar-20 22:33N 56°07' W 003°05'0 0.0
2017-Mar-20 21:33N 56°07' W 003°05'0 0.0
2017-Mar-20 20:33N 56°07' W 003°05'0 0.0
2017-Mar-20 19:34N 56°07' W 003°05'0 0.0
2017-Mar-20 18:34N 56°07' W 003°05'0 0.0
2017-Mar-20 17:33N 56°07' W 003°05'0 0.0
2017-Mar-20 16:34N 56°07' W 003°04'0 0.1
2017-Mar-20 15:33N 56°07' W 003°05'0 0.0
2017-Mar-20 14:33N 56°07' W 003°05'0 0.0
2017-Mar-20 13:34N 56°07' W 003°05'0 0.1
2017-Mar-20 12:33N 56°07' W 003°05'0 0.0
2017-Mar-20 11:33N 56°07' W 003°05'0 0.0
2017-Mar-20 10:33N 56°07' W 003°05'0 0.0
2017-Mar-20 09:34N 56°07' W 003°05'0 0.0
2017-Mar-20 08:33N 56°07' W 003°05'0 0.0
2017-Mar-20 07:33N 56°07' W 003°05'0 0.1
2017-Mar-20 06:33N 56°07' W 003°05'0 0.0
2017-Mar-20 05:33N 56°07' W 003°05'0 0.1
2017-Mar-20 04:33N 56°07' W 003°05'0 0.0
2017-Mar-20 03:33N 56°07' W 003°05'0 0.0
2017-Mar-20 02:33N 56°07' W 003°05'0 0.0
2017-Mar-20 01:33N 56°07' W 003°05'0 0.1
2017-Mar-20 00:33N 56°07' W 003°05'0 0.0
2017-Mar-19 23:33N 56°07' W 003°05'0 0.0
2017-Mar-19 22:33N 56°07' W 003°05'0 0.0
2017-Mar-19 21:33N 56°07' W 003°05'0 0.0
2017-Mar-19 20:33N 56°07' W 003°05'0 0.0
2017-Mar-19 19:33N 56°07' W 003°05'0 0.0
2017-Mar-19 18:33N 56°07' W 003°05'0 0.0
2017-Mar-19 17:33N 56°07' W 003°04'0 0.0
2017-Mar-19 16:33N 56°07' W 003°04'0 0.0
2017-Mar-19 15:33N 56°07' W 003°04'0 0.1
2017-Mar-19 14:33N 56°07' W 003°04'0 0.0
2017-Mar-19 13:33N 56°07' W 003°05'0 0.0
2017-Mar-19 12:33N 56°07' W 003°05'0 0.0
2017-Mar-19 11:33N 56°07' W 003°05'0 0.0
2017-Mar-19 10:34N 56°07' W 003°05'0 0.0
2017-Mar-19 09:33N 56°07' W 003°05'0 0.0
2017-Mar-19 08:34N 56°07' W 003°05'0 0.0
2017-Mar-19 07:34N 56°07' W 003°05'0 0.0
2017-Mar-19 06:33N 56°07' W 003°05'0 0.4
2017-Mar-19 05:33N 56°07' W 003°04'8 7.8
2017-Mar-19 04:33N 56°07' W 002°50'1010.3
2017-Mar-19 03:33N 56°07' W 002°31'1110.6
2017-Mar-19 02:33N 56°07' W 002°12'3611.1
2017-Mar-18 23:20N 55°44' W 001°23'279 8.9
2017-Mar-17 16:04N 51°41' E 002°29'712.9
2017-Mar-17 15:33N 51°36' E 002°22'1212.2
2017-Mar-17 14:33N 51°26' E 002°12'1212.0
2017-Mar-17 13:33N 51°15' E 002°05'1111.4
2017-Mar-17 12:33N 51°09' E 001°49'9 9.5
2017-Mar-17 11:33N 51°02' E 001°38'9 8.6
2017-Mar-17 10:33N 50°55' E 001°30'70 8.7
2017-Mar-17 02:32N 50°18' W 000°03'3812.3
2017-Mar-16 23:26N 50°08' W 001°01'1314.4
2017-Mar-16 22:34N 50°05' W 001°20'1514.7
2017-Mar-16 21:33N 50°01' W 001°42'6211.4
2017-Mar-16 16:06N 49°41' W 003°13'37 9.5
2017-Mar-16 12:16N 49°22' W 004°02'19 9.9
2017-Mar-16 10:23N 49°13' W 004°27'2010.9
2017-Mar-16 08:33N 49°03' W 004°53'1312.7
2017-Mar-16 07:33N 48°56' W 005°09'1313.3
2017-Mar-16 06:33N 48°49' W 005°27'1212.1
2017-Mar-16 05:33N 48°41' W 005°40'1312.7
2017-Mar-16 04:34N 48°30' W 005°49'1212.5
2017-Mar-16 03:34N 48°19' W 005°58'  
2017-Mar-13 10:27N 39°24' W 009°53'6 6.2
2017-Mar-13 09:33N 39°19' W 009°54'1 0.8
2017-Mar-13 08:14N 39°18' W 009°53'1 0.9
2017-Mar-13 07:32N 39°19' W 009°52'6 6.1
2017-Mar-13 06:34N 39°13' W 009°52'6 5.9
2017-Mar-13 05:33N 39°07' W 009°52'6 5.9
2017-Mar-13 04:33N 39°01' W 009°51'6 5.8
2017-Mar-13 03:33N 38°55' W 009°51'6 5.9
2017-Mar-13 02:33N 38°49' W 009°51'6 6.3
2017-Mar-13 01:33N 38°43' W 009°51'6 5.9
2017-Mar-13 00:33N 38°37' W 009°49'6 5.6
2017-Mar-12 23:33N 38°32' W 009°47'6 5.7
2017-Mar-12 22:33N 38°26' W 009°46'38 7.5
2017-Mar-12 17:27N 37°49' W 009°35'8 7.8
2017-Mar-12 16:27N 37°41' W 009°33'  
Track history (hours):
 
Tides and Currents Weather Stations Pressure Air Temp Water Temp Dewpoint Dewpoint Depression Visibility Wind Speed Wind Dir Waves Ship Positions

Nassauborg

Ship's website: http://www.wagenborg.com/index.cfm?pid=37&itemid=158&contentitemid=236

Last reported at 2017-Mar-21 19:33 UTC. Time now 2017-Mar-24 04:24 UTC.
Position N 56°01' W 003°20'.

Length 143 m; beam 22 m.

Type: Ship. MMSI: 246430000.

Date/timePositionNaut miles runAvg speedWind from/ knotsBaromVisibWave heightAir tempDewpointWater temp
2017-Mar-21 19:33N 56°01' W 003°20'9 9.5
2017-Mar-21 18:34N 56°06' W 003°05'1 1.0
2017-Mar-21 17:33N 56°07' W 003°05'0 0.2
2017-Mar-21 16:34N 56°07' W 003°05'0 0.1
2017-Mar-21 15:34N 56°07' W 003°04'0 0.0
2017-Mar-21 14:33N 56°07' W 003°05'0 0.1
2017-Mar-21 13:33N 56°07' W 003°05'0 0.0
2017-Mar-21 12:33N 56°07' W 003°05'0 0.0
2017-Mar-21 11:33N 56°07' W 003°05'0 0.0
2017-Mar-21 10:33N 56°07' W 003°05'0 0.0
2017-Mar-21 09:33N 56°07' W 003°05'0 0.0
2017-Mar-21 08:33N 56°07' W 003°05'0 0.0
2017-Mar-21 07:34N 56°07' W 003°05'0 0.0
2017-Mar-21 06:33N 56°07' W 003°05'0 0.0
2017-Mar-21 05:34N 56°07' W 003°05'0 0.0
2017-Mar-21 04:34N 56°07' W 003°05'0 0.0
2017-Mar-21 03:33N 56°07' W 003°05'0 0.0
2017-Mar-21 02:33N 56°07' W 003°05'0 0.0
2017-Mar-21 01:33N 56°07' W 003°05'0 0.0
2017-Mar-21 00:33N 56°07' W 003°05'0 0.0
2017-Mar-20 23:34N 56°07' W 003°05'0 0.0
2017-Mar-20 22:33N 56°07' W 003°05'0 0.0
2017-Mar-20 21:33N 56°07' W 003°05'0 0.0
2017-Mar-20 20:33N 56°07' W 003°05'0 0.0
2017-Mar-20 19:34N 56°07' W 003°05'0 0.0
2017-Mar-20 18:34N 56°07' W 003°05'0 0.0
2017-Mar-20 17:33N 56°07' W 003°05'0 0.0
2017-Mar-20 16:34N 56°07' W 003°04'0 0.1
2017-Mar-20 15:33N 56°07' W 003°05'0 0.0
2017-Mar-20 14:33N 56°07' W 003°05'0 0.0
2017-Mar-20 13:34N 56°07' W 003°05'0 0.1
2017-Mar-20 12:33N 56°07' W 003°05'0 0.0
2017-Mar-20 11:33N 56°07' W 003°05'0 0.0
2017-Mar-20 10:33N 56°07' W 003°05'0 0.0
2017-Mar-20 09:34N 56°07' W 003°05'0 0.0
2017-Mar-20 08:33N 56°07' W 003°05'0 0.0
2017-Mar-20 07:33N 56°07' W 003°05'0 0.1
2017-Mar-20 06:33N 56°07' W 003°05'0 0.0
2017-Mar-20 05:33N 56°07' W 003°05'0 0.1
2017-Mar-20 04:33N 56°07' W 003°05'0 0.0
2017-Mar-20 03:33N 56°07' W 003°05'0 0.0
2017-Mar-20 02:33N 56°07' W 003°05'0 0.0
2017-Mar-20 01:33N 56°07' W 003°05'0 0.1
2017-Mar-20 00:33N 56°07' W 003°05'0 0.0
2017-Mar-19 23:33N 56°07' W 003°05'0 0.0
2017-Mar-19 22:33N 56°07' W 003°05'0 0.0
2017-Mar-19 21:33N 56°07' W 003°05'0 0.0
2017-Mar-19 20:33N 56°07' W 003°05'0 0.0
2017-Mar-19 19:33N 56°07' W 003°05'0 0.0
2017-Mar-19 18:33N 56°07' W 003°05'0 0.0
2017-Mar-19 17:33N 56°07' W 003°04'0 0.0
2017-Mar-19 16:33N 56°07' W 003°04'0 0.0
2017-Mar-19 15:33N 56°07' W 003°04'0 0.1
2017-Mar-19 14:33N 56°07' W 003°04'0 0.0
2017-Mar-19 13:33N 56°07' W 003°05'0 0.0
2017-Mar-19 12:33N 56°07' W 003°05'0 0.0
2017-Mar-19 11:33N 56°07' W 003°05'0 0.0
2017-Mar-19 10:34N 56°07' W 003°05'0 0.0
2017-Mar-19 09:33N 56°07' W 003°05'0 0.0
2017-Mar-19 08:34N 56°07' W 003°05'0 0.0
2017-Mar-19 07:34N 56°07' W 003°05'0 0.0
2017-Mar-19 06:33N 56°07' W 003°05'0 0.4
2017-Mar-19 05:33N 56°07' W 003°04'8 7.8
2017-Mar-19 04:33N 56°07' W 002°50'1010.3
2017-Mar-19 03:33N 56°07' W 002°31'1110.6
2017-Mar-19 02:33N 56°07' W 002°12'3611.1
2017-Mar-18 23:20N 55°44' W 001°23'279 8.9
2017-Mar-17 16:04N 51°41' E 002°29'712.9
2017-Mar-17 15:33N 51°36' E 002°22'1212.2
2017-Mar-17 14:33N 51°26' E 002°12'1212.0
2017-Mar-17 13:33N 51°15' E 002°05'1111.4
2017-Mar-17 12:33N 51°09' E 001°49'9 9.5
2017-Mar-17 11:33N 51°02' E 001°38'9 8.6
2017-Mar-17 10:33N 50°55' E 001°30'70 8.7
2017-Mar-17 02:32N 50°18' W 000°03'3812.3
2017-Mar-16 23:26N 50°08' W 001°01'1314.4
2017-Mar-16 22:34N 50°05' W 001°20'1514.7
2017-Mar-16 21:33N 50°01' W 001°42'6211.4
2017-Mar-16 16:06N 49°41' W 003°13'37 9.5
2017-Mar-16 12:16N 49°22' W 004°02'19 9.9
2017-Mar-16 10:23N 49°13' W 004°27'2010.9
2017-Mar-16 08:33N 49°03' W 004°53'1312.7
2017-Mar-16 07:33N 48°56' W 005°09'1313.3
2017-Mar-16 06:33N 48°49' W 005°27'1212.1
2017-Mar-16 05:33N 48°41' W 005°40'1312.7
2017-Mar-16 04:34N 48°30' W 005°49'1212.5
2017-Mar-16 03:34N 48°19' W 005°58'  
2017-Mar-13 10:27N 39°24' W 009°53'6 6.2
2017-Mar-13 09:33N 39°19' W 009°54'1 0.8
2017-Mar-13 08:14N 39°18' W 009°53'1 0.9
2017-Mar-13 07:32N 39°19' W 009°52'6 6.1
2017-Mar-13 06:34N 39°13' W 009°52'6 5.9
2017-Mar-13 05:33N 39°07' W 009°52'6 5.9
2017-Mar-13 04:33N 39°01' W 009°51'6 5.8
2017-Mar-13 03:33N 38°55' W 009°51'6 5.9
2017-Mar-13 02:33N 38°49' W 009°51'6 6.3
2017-Mar-13 01:33N 38°43' W 009°51'6 5.9
2017-Mar-13 00:33N 38°37' W 009°49'6 5.6
2017-Mar-12 23:33N 38°32' W 009°47'6 5.7
2017-Mar-12 22:33N 38°26' W 009°46'38 7.5
2017-Mar-12 17:27N 37°49' W 009°35'8 7.8
2017-Mar-12 16:27N 37°41' W 009°33'  

Dump ship's entire track history